logo
Search for airport 
image banner adimage banner adimage banner ad
image banner ad

CA115 - Ketza River

Located in , Canada

ICAO - , IATA -

Data provided by Airmate  

General information

Coordinates: N61°51'0" W132°18'0"
Elevation is 3032 feet MSL.
 
View others Airports in Yukon Territory

Operational data

Special qualification required
Current time UTC:
Current local time:
Weather at : CZFA - Faro ( 69 km )
METAR: CZFA 231700Z 32005KT 280V360 10SM FEW090 BKN160 OVC180 18/13 A2989 RMK AC2AC3AC3 FU SLP130 DENSITY ALT 3300FT
TAF: TAF CZFA 231440Z 2315/2401 28006KT P6SM SCT080 BKN160 TEMPO 2315/2320 BKN080 OVC160 FM232000 05012KT P6SM SCT070 TEMPO 2320/2401 P6SM -SHRA VCTS BKN080CB RMK NXT FCST BY 231800Z
View NOTAMs / SUP AIP / TFR affecting this airport [VIEW]
Communications frequencies: [VIEW]

Runways:

Airport contact information

Address: Canada

Satellite view of CA115